createdAt,value
2018-04-30T00:05:20.948Z,50.60
2018-04-30T00:11:24.461Z,50.60
2018-04-30T00:17:27.952Z,50.70
2018-04-30T00:23:31.358Z,50.80
2018-04-30T00:29:34.934Z,50.90
2018-04-30T00:35:39.178Z,50.90
2018-04-30T00:41:42.754Z,50.90
2018-04-30T00:47:47.023Z,51.10
2018-04-30T00:53:50.415Z,51.00
2018-04-30T00:59:53.843Z,50.50
2018-04-30T01:05:57.269Z,51.60
2018-04-30T01:12:01.527Z,51.90
2018-04-30T01:18:05.093Z,51.50
2018-04-30T01:24:09.392Z,51.00
2018-04-30T01:30:13.020Z,51.50
2018-04-30T01:36:17.221Z,51.50
2018-04-30T01:42:20.682Z,51.40
2018-04-30T01:48:24.084Z,51.80
2018-04-30T01:54:28.377Z,52.60
2018-04-30T02:00:31.999Z,51.90
2018-04-30T02:06:35.506Z,52.00
2018-04-30T02:12:39.013Z,52.50
2018-04-30T02:18:43.153Z,52.50
2018-04-30T02:24:46.729Z,51.80
2018-04-30T02:30:50.107Z,51.70
2018-04-30T02:36:53.547Z,51.50
2018-04-30T02:42:56.930Z,51.80
2018-04-30T02:49:00.436Z,51.70
2018-04-30T02:55:04.622Z,51.90
2018-04-30T03:01:08.042Z,52.00
2018-04-30T03:07:11.598Z,51.90
2018-04-30T03:13:15.147Z,52.50
2018-04-30T03:19:18.702Z,52.00
2018-04-30T03:25:22.968Z,52.60
2018-04-30T03:31:26.504Z,52.10
2018-04-30T03:37:30.074Z,52.00
2018-04-30T03:43:33.553Z,52.20
2018-04-30T03:49:37.100Z,54.50
2018-04-30T03:55:40.630Z,54.10
2018-04-30T04:02:01.960Z,55.30
2018-04-30T04:08:06.221Z,55.60
2018-04-30T04:14:09.678Z,55.60
2018-04-30T04:20:13.233Z,56.00
2018-04-30T04:26:17.500Z,55.60
2018-04-30T04:32:21.669Z,55.10
2018-04-30T04:38:25.935Z,55.20
2018-04-30T04:44:30.081Z,54.80
2018-04-30T04:50:33.567Z,55.10
2018-04-30T04:56:37.713Z,55.10
2018-04-30T05:02:41.272Z,55.10
2018-04-30T05:08:45.541Z,54.80
2018-04-30T05:14:49.725Z,54.80
2018-04-30T05:20:53.984Z,54.50
2018-04-30T05:26:58.190Z,54.60
2018-04-30T05:33:01.698Z,54.50
2018-04-30T05:39:06.994Z,55.30
2018-04-30T05:45:10.460Z,54.80
2018-04-30T05:51:14.708Z,55.20
2018-04-30T05:57:18.879Z,55.30
2018-04-30T06:03:22.351Z,55.30
2018-04-30T06:09:25.794Z,55.50
2018-04-30T06:15:30.357Z,55.90
2018-04-30T06:21:34.524Z,55.70
2018-04-30T06:27:38.651Z,55.80
2018-04-30T06:33:42.083Z,55.40
2018-04-30T06:39:45.471Z,54.70
2018-04-30T06:45:48.849Z,52.20
2018-04-30T06:51:53.001Z,49.50
2018-04-30T06:57:56.479Z,49.40
2018-04-30T07:03:59.862Z,49.60
2018-04-30T07:10:03.272Z,50.20
2018-04-30T07:16:06.804Z,49.80
2018-04-30T07:22:10.275Z,49.80
2018-04-30T07:28:13.805Z,50.10
2018-04-30T07:34:17.356Z,50.10
2018-04-30T07:40:20.826Z,50.50
2018-04-30T07:46:24.955Z,50.90
2018-04-30T07:52:28.344Z,50.90
2018-04-30T07:58:31.786Z,50.80
2018-04-30T08:04:35.963Z,51.00
2018-04-30T08:10:39.447Z,50.90
2018-04-30T08:16:42.996Z,51.20
2018-04-30T08:22:46.493Z,52.00
2018-04-30T08:28:50.619Z,51.60
2018-04-30T08:34:54.007Z,51.50
2018-04-30T08:40:58.164Z,51.90
2018-04-30T08:47:01.729Z,51.80
2018-04-30T08:53:05.980Z,52.20
2018-04-30T08:59:09.549Z,52.20
2018-04-30T09:05:13.074Z,52.10
2018-04-30T09:11:16.508Z,52.30
2018-04-30T09:17:19.968Z,53.00
2018-04-30T09:23:23.452Z,52.10
2018-04-30T09:29:26.976Z,52.20
2018-04-30T09:35:30.474Z,52.20
2018-04-30T09:41:33.928Z,52.40
2018-04-30T09:47:37.395Z,52.50
2018-04-30T09:53:40.907Z,52.70
2018-04-30T09:59:44.434Z,53.00
2018-04-30T10:05:47.840Z,53.00
2018-04-30T10:11:52.075Z,53.70
2018-04-30T10:17:55.558Z,53.60
2018-04-30T10:23:59.136Z,53.80
2018-04-30T10:30:02.545Z,53.80
2018-04-30T10:36:05.972Z,53.80
2018-04-30T10:42:09.379Z,53.70
2018-04-30T10:48:13.613Z,53.80
2018-04-30T10:54:17.078Z,53.80
2018-04-30T11:00:20.736Z,53.60
2018-04-30T11:06:25.003Z,53.50
2018-04-30T11:12:29.381Z,54.10
2018-04-30T11:18:32.928Z,53.40
2018-04-30T11:24:36.394Z,53.20
2018-04-30T11:30:40.653Z,53.10
2018-04-30T11:36:44.094Z,53.00
2018-04-30T11:42:48.288Z,53.00
2018-04-30T11:48:51.859Z,52.80
2018-04-30T11:54:55.374Z,52.80
2018-04-30T12:00:59.570Z,52.90
2018-04-30T12:07:03.028Z,52.80
2018-04-30T12:13:06.459Z,53.00
2018-04-30T12:19:09.902Z,53.20
2018-04-30T12:25:13.363Z,53.10
2018-04-30T12:31:16.829Z,53.00
2018-04-30T12:37:20.245Z,52.80
2018-04-30T12:43:25.064Z,52.80
2018-04-30T12:49:28.732Z,52.80
2018-04-30T12:55:32.226Z,53.00
2018-04-30T13:01:36.395Z,53.10
2018-04-30T13:07:40.666Z,52.80
2018-04-30T13:13:44.194Z,52.80
2018-04-30T13:19:47.581Z,52.90
2018-04-30T13:25:50.970Z,53.00
2018-04-30T13:31:54.462Z,52.70
2018-04-30T13:37:58.651Z,53.10
2018-04-30T13:44:02.906Z,53.00
2018-04-30T13:50:07.167Z,53.10
2018-04-30T13:56:11.363Z,52.70
2018-04-30T14:02:15.530Z,52.70
2018-04-30T14:08:19.764Z,52.60
2018-04-30T14:14:23.232Z,52.60
2018-04-30T14:20:27.421Z,52.80
2018-04-30T14:26:30.809Z,52.70
2018-04-30T14:32:34.404Z,52.80
2018-04-30T14:38:38.670Z,52.90
2018-04-30T14:44:42.940Z,53.10
2018-04-30T14:50:47.127Z,53.10
2018-04-30T14:56:50.579Z,53.10
2018-04-30T15:02:54.720Z,53.00
2018-04-30T15:08:58.907Z,53.50
2018-04-30T15:15:02.287Z,53.00
2018-04-30T15:21:05.868Z,53.00
2018-04-30T15:27:09.441Z,53.00
2018-04-30T15:33:12.892Z,53.20
2018-04-30T15:39:16.379Z,53.20
2018-04-30T15:45:19.909Z,53.70
2018-04-30T15:51:24.095Z,54.10
2018-04-30T15:57:28.219Z,53.90
2018-04-30T16:03:31.694Z,53.90
2018-04-30T16:09:35.253Z,53.50
2018-04-30T16:15:38.639Z,53.70
2018-04-30T16:21:42.143Z,53.20
2018-04-30T16:27:45.525Z,53.10
2018-04-30T16:33:48.928Z,53.10
2018-04-30T16:39:53.126Z,53.10
2018-04-30T16:45:57.256Z,53.80
2018-04-30T16:52:00.645Z,53.10
2018-04-30T16:58:04.834Z,52.70
2018-04-30T17:04:08.258Z,52.70
2018-04-30T17:10:12.435Z,54.10
2018-04-30T17:16:16.610Z,54.00
2018-04-30T17:22:20.059Z,54.00
2018-04-30T17:28:24.229Z,53.50
2018-04-30T17:34:27.669Z,53.40
2018-04-30T17:40:31.879Z,53.20
2018-04-30T17:46:35.379Z,53.10
2018-04-30T17:52:39.643Z,53.00
2018-04-30T17:58:43.925Z,52.90
2018-04-30T18:04:47.464Z,52.90
2018-04-30T18:10:51.585Z,52.20
2018-04-30T18:16:54.972Z,52.70
2018-04-30T18:22:58.356Z,52.70
2018-04-30T18:29:01.881Z,52.00
2018-04-30T18:35:06.067Z,52.40
2018-04-30T18:41:09.596Z,52.30
2018-04-30T18:47:13.769Z,52.20
2018-04-30T18:53:17.966Z,52.10
2018-04-30T18:59:21.379Z,52.10
2018-04-30T19:05:25.540Z,52.60
2018-04-30T19:11:29.050Z,51.80
2018-04-30T19:17:32.568Z,51.60
2018-04-30T19:23:36.831Z,51.20
2018-04-30T19:29:41.069Z,51.00
2018-04-30T19:35:44.645Z,50.90
2018-04-30T19:41:48.766Z,51.30
2018-04-30T19:47:52.278Z,50.80
2018-04-30T19:53:56.485Z,51.20
2018-04-30T20:00:00.694Z,51.20
2018-04-30T20:06:04.134Z,51.30
2018-04-30T20:12:07.709Z,51.40
2018-04-30T20:18:12.996Z,51.40
2018-04-30T20:24:17.155Z,51.50
2018-04-30T20:30:20.690Z,51.20
2018-04-30T20:36:24.277Z,51.30
2018-04-30T20:42:28.462Z,51.20
2018-04-30T20:48:31.992Z,51.20
2018-04-30T20:54:35.544Z,51.20
2018-04-30T21:00:39.203Z,51.20
2018-04-30T21:06:43.391Z,51.20
2018-04-30T21:12:46.886Z,51.10
2018-04-30T21:18:50.376Z,51.10
2018-04-30T21:24:54.555Z,51.10
2018-04-30T21:30:58.672Z,51.00
2018-04-30T21:37:02.538Z,51.00
2018-04-30T21:43:08.105Z,51.00
2018-04-30T21:49:11.530Z,51.00
2018-04-30T21:55:15.781Z,51.00
2018-04-30T22:01:19.238Z,50.90
2018-04-30T22:07:23.430Z,51.00
2018-04-30T22:13:26.853Z,50.90
2018-04-30T22:19:31.112Z,51.00
2018-04-30T22:25:34.575Z,50.80
2018-04-30T22:31:38.737Z,50.80
2018-04-30T22:37:43.333Z,50.90
2018-04-30T22:43:47.581Z,50.70
2018-04-30T22:49:51.882Z,51.30
2018-04-30T22:55:55.377Z,50.70
2018-04-30T23:01:58.955Z,50.70
2018-04-30T23:08:03.555Z,50.70
2018-04-30T23:14:07.048Z,50.60
2018-04-30T23:20:10.499Z,50.70
2018-04-30T23:26:13.910Z,50.70
2018-04-30T23:32:17.305Z,50.70
2018-04-30T23:38:20.748Z,50.50
2018-04-30T23:44:24.229Z,50.50
2018-04-30T23:50:27.698Z,50.50
2018-04-30T23:56:32.045Z,50.50
